Terminal Aerodrome Forecast
Issued by NWS

Home | Current Version | Previous Version | Text Only | Print | Product List | Glossary On
Versions: 1 2 3 4 5 6 7 8 9 10 11 12 13 14 15 16 17 18 19
000
FTAK31 PANC 212340
TAFAEN
TAF
PAEN 212340Z 2200/2224 03007KT P6SM BKN120
     FM221200 04008KT 5SM -RASN BR SCT020 BKN030
     FM221600 18010KT 2SM -SN OVC012
     FM222100 22015KT P6SM -SHSN BKN035=

USA.gov is the U.S. government's official web portal to all federal, state and local government web resources and services.